Time;durP1;ratioP1;P1;durP2;ratioP2;P2;SDS_P1;SDS_P2;PMS_P1;PMS_P2;Temp;Humidity;BMP_temperature;BMP_pressure;BME280_temperature;BME280_humidity;BME280_pressure;Samples;Min_cycle;Max_cycle;Signal;HPM_P1;HPM_P2
2022/09/15 00:02:23;;;;;;;;;;;;;;;12.01;100.00;99613.91;5034699;28;19925;-81
2022/09/15 00:04:56;;;;;;;;;;;;;;;11.98;100.00;99606.38;5065320;28;19944;-81
2022/09/15 00:07:30;;;;;;;;;;;;;;;12.00;100.00;99601.41;5028266;28;19921;-82
2022/09/15 00:09:57;;;;;;;;;;;;;;;12.05;100.00;99598.53;5044584;28;19925;-81
2022/09/15 00:12:26;;;;;;;;;;;;;;;12.07;100.00;99599.84;5030610;28;19928;-84
2022/09/15 00:14:55;;;;;;;;;;;;;;;12.10;100.00;99598.41;5027455;28;19922;-83
2022/09/15 00:17:28;;;;;;;;;;;;;;;12.13;100.00;99595.03;5024000;28;19932;-82
2022/09/15 00:20:00;;;;;;;;;;;;;;;12.12;100.00;99600.81;5061492;28;19927;-82
2022/09/15 00:22:33;;;;;;;;;;;;;;;12.12;100.00;99598.09;5065019;28;19925;-82
2022/09/15 00:25:06;;;;;;;;;;;;;;;12.22;100.00;99608.69;5020645;28;19922;-83
2022/09/15 00:27:39;;;;;;;;;;;;;;;12.19;100.00;99612.06;5037593;28;20298;-83
2022/09/15 00:30:13;;;;;;;;;;;;;;;12.19;100.00;99615.59;5016319;28;19933;-84
2022/09/15 00:32:46;;;;;;;;;;;;;;;12.20;100.00;99611.72;5035416;28;20400;-83
2022/09/15 00:35:19;;;;;;;;;;;;;;;12.20;100.00;99613.66;5031059;28;19928;-84
2022/09/15 00:37:52;;;;;;;;;;;;;;;12.21;100.00;99609.81;5028161;28;19932;-82
2022/09/15 00:40:26;;;;;;;;;;;;;;;12.16;100.00;99618.94;5044385;28;19925;-83
2022/09/15 00:42:59;;;;;;;;;;;;;;;12.18;100.00;99621.34;5037536;28;19928;-83
2022/09/15 00:45:28;;;;;;;;;;;;;;;12.13;100.00;99616.84;5034723;28;19928;-83
2022/09/15 00:48:01;;;;;;;;;;;;;;;12.10;100.00;99612.03;5033452;28;19921;-84
2022/09/15 00:50:29;;;;;;;;;;;;;;;12.18;100.00;99622.16;5036155;28;20385;-82
2022/09/15 00:53:03;;;;;;;;;;;;;;;12.09;100.00;99621.34;5029615;28;19932;-80
2022/09/15 00:55:37;;;;;;;;;;;;;;;12.13;100.00;99616.84;5022872;28;19921;-81
2022/09/15 00:58:07;;;;;;;;;;;;;;;12.15;100.00;99625.53;5048473;28;19936;-84
2022/09/15 01:00:46;;;;;;;;;;;;;;;12.14;100.00;99626.66;5020232;28;20400;-83
2022/09/15 01:03:14;;;;;;;;;;;;;;;12.11;100.00;99621.84;5044457;28;19925;-85
2022/09/15 01:05:43;;;;;;;;;;;;;;;12.12;100.00;99623.41;5034671;28;19924;-81
2022/09/15 01:08:19;;;;;;;;;;;;;;;12.11;100.00;99624.56;5060161;28;19929;-81
2022/09/15 01:10:52;;;;;;;;;;;;;;;12.11;100.00;99615.56;5031734;28;19937;-83
2022/09/15 01:13:19;;;;;;;;;;;;;;;12.03;100.00;99612.50;5034525;28;19933;-82
2022/09/15 01:16:00;;;;;;;;;;;;;;;12.03;100.00;99608.97;5047867;28;19948;-81
2022/09/15 01:18:32;;;;;;;;;;;;;;;12.01;100.00;99598.34;5048552;28;19928;-83
2022/09/15 01:21:21;;;;;;;;;;;;;;;12.00;100.00;99587.78;5019568;28;19932;-82
2022/09/15 01:24:07;;;;;;;;;;;;;;;11.99;100.00;99594.38;5025429;28;19920;-83
2022/09/15 01:26:46;;;;;;;;;;;;;;;12.03;100.00;99590.69;5018678;28;19932;-81
2022/09/15 01:29:28;;;;;;;;;;;;;;;12.01;100.00;99592.09;5020997;28;19993;-83
2022/09/15 01:34:55;;;;;;;;;;;;;;;12.00;100.00;99590.50;5042432;28;19932;-81
2022/09/15 01:37:29;;;;;;;;;;;;;;;11.98;100.00;99592.75;5033002;28;20144;-81
2022/09/15 01:39:58;;;;;;;;;;;;;;;11.97;100.00;99591.13;5026705;28;20363;-82
2022/09/15 01:42:27;;;;;;;;;;;;;;;12.01;100.00;99589.38;5037779;28;19921;-81
2022/09/15 01:45:04;;;;;;;;;;;;;;;11.98;100.00;99588.09;5054460;28;19925;-82
2022/09/15 01:47:38;;;;;;;;;;;;;;;12.02;100.00;99589.06;5050381;28;19921;-82
2022/09/15 01:50:09;;;;;;;;;;;;;;;12.08;100.00;99592.44;5018568;28;19922;-81
2022/09/15 01:52:41;;;;;;;;;;;;;;;12.06;100.00;99590.03;5040887;28;19920;-81
2022/09/15 01:55:11;;;;;;;;;;;;;;;12.05;100.00;99593.09;5021336;28;19925;-82
2022/09/15 01:57:45;;;;;;;;;;;;;;;12.10;100.00;99594.84;5041815;28;19947;-82
2022/09/15 02:00:14;;;;;;;;;;;;;;;12.10;100.00;99589.41;5029192;28;19925;-82
2022/09/15 02:02:45;;;;;;;;;;;;;;;12.11;100.00;99589.09;5056578;28;20430;-81
2022/09/15 02:05:24;;;;;;;;;;;;;;;12.06;100.00;99591.97;5052202;28;19928;-81
2022/09/15 02:08:00;;;;;;;;;;;;;;;12.15;100.00;99591.97;5080823;28;19921;-82
2022/09/15 02:10:35;;;;;;;;;;;;;;;12.12;100.00;99598.88;5027228;28;20369;-82
2022/09/15 02:13:15;;;;;;;;;;;;;;;12.12;100.00;99598.88;5030374;28;19934;-83
2022/09/15 02:15:51;;;;;;;;;;;;;;;12.07;100.00;99588.94;5047680;28;19920;-81
2022/09/15 02:18:33;;;;;;;;;;;;;;;12.02;100.00;99594.50;5042624;28;19936;-81
2022/09/15 02:21:06;;;;;;;;;;;;;;;12.08;100.00;99601.44;5026055;28;19925;-83
2022/09/15 02:23:42;;;;;;;;;;;;;;;12.10;100.00;99600.31;5046223;28;20238;-81
2022/09/15 02:26:18;;;;;;;;;;;;;;;12.08;100.00;99600.63;5042726;28;19921;-81
2022/09/15 02:28:53;;;;;;;;;;;;;;;12.11;100.00;99600.00;5030141;28;20305;-83
2022/09/15 02:31:29;;;;;;;;;;;;;;;12.14;100.00;99610.28;5031587;28;19921;-83
2022/09/15 02:34:03;;;;;;;;;;;;;;;12.09;100.00;99604.97;5035564;28;20301;-82
2022/09/15 02:36:31;;;;;;;;;;;;;;;12.09;100.00;99602.25;5068059;28;19932;-82
2022/09/15 02:39:02;;;;;;;;;;;;;;;12.12;100.00;99601.59;5048085;28;19925;-82
2022/09/15 02:41:35;;;;;;;;;;;;;;;12.12;100.00;99609.00;5064448;28;19924;-82
2022/09/15 02:44:03;;;;;;;;;;;;;;;12.08;100.00;99601.44;5026973;28;19928;-83
2022/09/15 02:46:38;;;;;;;;;;;;;;;12.15;100.00;99601.00;5043637;28;20285;-83
2022/09/15 02:49:10;;;;;;;;;;;;;;;12.15;100.00;99590.09;5063986;28;19928;-86
2022/09/15 02:51:38;;;;;;;;;;;;;;;12.20;100.00;99605.47;5034370;28;19947;-84
2022/09/15 02:54:11;;;;;;;;;;;;;;;12.14;100.00;99604.84;5055169;28;19928;-86
2022/09/15 02:56:39;;;;;;;;;;;;;;;12.15;100.00;99605.63;5032652;28;19931;-86
2022/09/15 02:59:07;;;;;;;;;;;;;;;12.13;100.00;99602.41;5049878;28;19928;-81
2022/09/15 03:01:35;;;;;;;;;;;;;;;12.16;100.00;99599.06;5034774;28;19924;-80
2022/09/15 03:04:05;;;;;;;;;;;;;;;12.14;100.00;99606.72;5072520;28;19928;-80
2022/09/15 03:06:38;;;;;;;;;;;;;;;12.08;100.00;99606.91;5045871;28;19921;-83
2022/09/15 03:09:12;;;;;;;;;;;;;;;12.07;100.00;99613.47;5025595;28;19921;-82
2022/09/15 03:11:40;;;;;;;;;;;;;;;12.09;100.00;99610.41;5022972;28;19921;-83
2022/09/15 03:14:12;;;;;;;;;;;;;;;12.15;100.00;99608.34;5037496;28;19921;-82
2022/09/15 03:16:45;;;;;;;;;;;;;;;12.15;100.00;99611.06;5054621;28;20276;-82
2022/09/15 03:19:19;;;;;;;;;;;;;;;12.08;100.00;99609.63;5038471;28;19932;-82
2022/09/15 03:21:52;;;;;;;;;;;;;;;12.06;100.00;99603.66;5036221;28;19921;-84
2022/09/15 03:24:25;;;;;;;;;;;;;;;12.02;100.00;99599.97;5025439;28;19952;-85
2022/09/15 03:26:58;;;;;;;;;;;;;;;12.02;100.00;99605.41;5053601;28;20293;-85
2022/09/15 03:29:25;;;;;;;;;;;;;;;11.96;100.00;99595.78;5031133;28;19921;-85
2022/09/15 03:31:58;;;;;;;;;;;;;;;12.01;100.00;99601.09;5050326;28;19999;-85
2022/09/15 03:34:32;;;;;;;;;;;;;;;11.97;100.00;99597.38;5064412;28;20370;-84
2022/09/15 03:37:00;;;;;;;;;;;;;;;11.98;100.00;99598.19;5032304;28;19932;-85
2022/09/15 03:39:33;;;;;;;;;;;;;;;11.96;100.00;99593.06;5028391;28;19928;-84
2022/09/15 03:42:06;;;;;;;;;;;;;;;11.97;100.00;99602.03;5059518;28;20112;-83
2022/09/15 03:44:39;;;;;;;;;;;;;;;11.97;100.00;99607.50;5053414;28;19931;-84
2022/09/15 03:47:11;;;;;;;;;;;;;;;11.93;100.00;99598.31;5058950;28;19922;-84
2022/09/15 03:49:41;;;;;;;;;;;;;;;11.93;100.00;99598.31;5021144;28;19932;-85
2022/09/15 03:52:09;;;;;;;;;;;;;;;11.92;100.00;99594.78;5032891;28;20401;-83
2022/09/15 03:54:36;;;;;;;;;;;;;;;11.86;100.00;99594.13;5024178;28;20373;-84
2022/09/15 03:57:10;;;;;;;;;;;;;;;11.85;100.00;99599.91;5030867;28;19933;-84
2022/09/15 03:59:42;;;;;;;;;;;;;;;11.82;100.00;99595.88;5023962;28;19920;-84
2022/09/15 04:02:15;;;;;;;;;;;;;;;11.87;100.00;99592.19;5056833;28;19925;-83
2022/09/15 04:04:49;;;;;;;;;;;;;;;11.86;100.00;99596.84;5035412;28;19921;-84
2022/09/15 04:07:22;;;;;;;;;;;;;;;11.86;100.00;99588.69;5045891;28;19929;-85
2022/09/15 04:09:56;;;;;;;;;;;;;;;11.88;100.00;99589.16;5049960;28;19932;-84
2022/09/15 04:12:23;;;;;;;;;;;;;;;11.90;100.00;99591.56;5028700;28;20373;-83
2022/09/15 04:14:56;;;;;;;;;;;;;;;11.91;100.00;99593.97;5042758;28;19924;-84
2022/09/15 04:17:24;;;;;;;;;;;;;;;11.91;100.00;99593.16;5029837;28;19932;-85
2022/09/15 04:19:59;;;;;;;;;;;;;;;11.91;100.00;99593.16;5045582;28;20266;-84
2022/09/15 04:22:31;;;;;;;;;;;;;;;11.88;100.00;99578.25;5049622;28;19925;-85
2022/09/15 04:25:05;;;;;;;;;;;;;;;11.87;100.00;99576.63;5048115;28;20220;-85
2022/09/15 04:27:37;;;;;;;;;;;;;;;11.82;100.00;99579.53;5053062;28;19925;-84
2022/09/15 04:30:10;;;;;;;;;;;;;;;11.81;100.00;99585.28;5035680;28;19925;-84
2022/09/15 04:32:43;;;;;;;;;;;;;;;11.87;100.00;99592.19;5031811;28;19921;-84
2022/09/15 04:35:17;;;;;;;;;;;;;;;11.82;100.00;99587.69;5054035;28;19947;-84
2022/09/15 04:37:50;;;;;;;;;;;;;;;11.82;100.00;99592.31;5069633;28;19925;-84
2022/09/15 04:40:23;;;;;;;;;;;;;;;11.77;100.00;99587.81;5031398;28;19921;-84
2022/09/15 04:42:51;;;;;;;;;;;;;;;11.77;100.00;99593.28;5027350;28;19921;-84
2022/09/15 04:45:19;;;;;;;;;;;;;;;11.75;100.00;99595.50;5029861;28;19932;-85
2022/09/15 04:47:47;;;;;;;;;;;;;;;11.70;100.00;99593.72;5020561;28;19926;-84
2022/09/15 04:50:21;;;;;;;;;;;;;;;11.68;100.00;99585.06;5044011;28;19925;-84
2022/09/15 04:53:02;;;;;;;;;;;;;;;11.65;100.00;99585.69;5040950;28;19940;-85
2022/09/15 04:55:34;;;;;;;;;;;;;;;11.65;100.00;99582.97;5045964;28;19927;-85
2022/09/15 04:58:02;;;;;;;;;;;;;;;11.64;100.00;99578.66;5024281;28;20382;-84
2022/09/15 05:00:40;;;;;;;;;;;;;;;11.73;100.00;99576.75;5030086;28;19932;-85
2022/09/15 05:03:08;;;;;;;;;;;;;;;11.76;100.00;99579.97;5032299;28;20270;-85
2022/09/15 05:05:38;;;;;;;;;;;;;;;11.76;100.00;99586.22;5067367;28;19932;-84
2022/09/15 05:08:06;;;;;;;;;;;;;;;11.79;100.00;99588.31;5032149;28;19928;-85
2022/09/15 05:10:39;;;;;;;;;;;;;;;11.80;100.00;99586.41;5022889;28;20292;-85
2022/09/15 05:13:12;;;;;;;;;;;;;;;11.83;100.00;99599.41;5036244;28;20401;-83
2022/09/15 05:15:45;;;;;;;;;;;;;;;11.78;100.00;99589.44;5033446;28;19925;-84
2022/09/15 05:18:18;;;;;;;;;;;;;;;11.84;100.00;99587.38;5040303;28;19928;-84
2022/09/15 05:20:58;;;;;;;;;;;;;;;11.85;100.00;99586.28;5055582;28;20370;-82
2022/09/15 05:23:32;;;;;;;;;;;;;;;11.85;100.00;99589.78;5047945;28;19920;-82
2022/09/15 05:26:06;;;;;;;;;;;;;;;11.90;100.00;99586.09;5058847;28;19932;-82
2022/09/15 05:28:35;;;;;;;;;;;;;;;11.86;100.00;99576.94;5045288;28;19960;-87
2022/09/15 05:31:09;;;;;;;;;;;;;;;11.86;100.00;99583.22;5039504;28;20286;-86
2022/09/15 05:33:41;;;;;;;;;;;;;;;11.85;100.00;99583.53;5046285;28;19920;-82
2022/09/15 05:36:13;;;;;;;;;;;;;;;11.89;100.00;99577.13;5035067;28;19921;-92
2022/09/15 05:38:46;;;;;;;;;;;;;;;11.95;100.00;99587.94;5042266;28;19925;-82
2022/09/15 05:41:16;;;;;;;;;;;;;;;11.91;100.00;99577.59;5037357;28;19921;-85
2022/09/15 05:43:49;;;;;;;;;;;;;;;11.93;100.00;99574.56;5040928;28;19928;-83
2022/09/15 05:46:19;;;;;;;;;;;;;;;11.89;100.00;99571.69;5036162;28;19929;-81
2022/09/15 05:48:52;;;;;;;;;;;;;;;11.96;100.00;99578.63;5031854;28;19928;-85
2022/09/15 05:51:22;;;;;;;;;;;;;;;11.98;100.00;99585.38;5034406;28;19925;-83
2022/09/15 05:53:54;;;;;;;;;;;;;;;11.98;100.00;99570.94;5046475;28;20377;-81
2022/09/15 05:56:22;;;;;;;;;;;;;;;12.02;100.00;99580.09;5034639;28;19925;-82
2022/09/15 05:58:51;;;;;;;;;;;;;;;11.94;100.00;99586.28;5060914;28;19928;-85
2022/09/15 06:01:19;;;;;;;;;;;;;;;12.05;100.00;99590.34;5031992;28;19929;-82
2022/09/15 06:03:52;;;;;;;;;;;;;;;12.12;100.00;99587.16;5039541;28;20299;-81
2022/09/15 06:06:22;;;;;;;;;;;;;;;12.12;100.00;99595.34;5038779;28;19925;-81
2022/09/15 06:08:57;;;;;;;;;;;;;;;12.17;100.00;99597.94;5056138;28;20305;-82
2022/09/15 06:11:32;;;;;;;;;;;;;;;12.19;100.00;99592.97;5025090;28;19959;-80
2022/09/15 06:14:05;;;;;;;;;;;;;;;12.12;100.00;99596.16;5031720;28;19921;-85
2022/09/15 06:16:34;;;;;;;;;;;;;;;12.15;100.00;99589.25;5028840;28;19928;-84
2022/09/15 06:19:07;;;;;;;;;;;;;;;12.12;100.00;99598.09;5032277;28;19920;-81
2022/09/15 06:21:36;;;;;;;;;;;;;;;12.12;100.00;99598.88;5046445;28;19928;-82
2022/09/15 06:24:05;;;;;;;;;;;;;;;12.13;100.00;99602.41;5023949;28;19921;-82
2022/09/15 06:26:38;;;;;;;;;;;;;;;12.14;100.00;99590.38;5024746;28;19950;-81
2022/09/15 06:29:06;;;;;;;;;;;;;;;12.18;100.00;99596.81;5032704;28;19925;-81
2022/09/15 06:31:39;;;;;;;;;;;;;;;12.36;100.00;99594.91;5058315;28;19948;-80
2022/09/15 06:34:12;;;;;;;;;;;;;;;12.40;100.00;99593.16;5043256;28;19928;-81
2022/09/15 06:36:59;;;;;;;;;;;;;;;12.36;100.00;99611.28;5031392;28;19925;-82
2022/09/15 06:39:27;;;;;;;;;;;;;;;12.40;100.00;99610.34;5037023;28;19921;-81
2022/09/15 06:42:00;;;;;;;;;;;;;;;12.33;100.00;99629.13;5027274;28;20290;-85
2022/09/15 06:44:34;;;;;;;;;;;;;;;12.32;100.00;99632.13;5034807;28;19937;-85
2022/09/15 06:47:02;;;;;;;;;;;;;;;12.27;100.00;99613.22;5039742;28;19921;-82
2022/09/15 06:49:30;;;;;;;;;;;;;;;12.13;100.00;99618.78;5040111;28;19924;-82
2022/09/15 06:52:04;;;;;;;;;;;;;;;12.16;100.00;99621.66;5013797;28;19925;-85
2022/09/15 06:54:37;;;;;;;;;;;;;;;12.23;100.00;99624.72;5027565;28;19925;-84
2022/09/15 06:57:05;;;;;;;;;;;;;;;12.27;100.00;99615.94;5043914;28;20354;-86
2022/09/15 06:59:38;;;;;;;;;;;;;;;12.21;100.00;99618.81;5059412;28;19925;-85
2022/09/15 07:02:06;;;;;;;;;;;;;;;12.41;100.00;99632.97;5027748;28;19933;-85
2022/09/15 07:04:38;;;;;;;;;;;;;;;12.48;100.00;99627.84;5041461;28;19932;-84
2022/09/15 07:07:13;;;;;;;;;;;;;;;12.51;100.00;99624.50;5029091;28;20305;-85
2022/09/15 07:09:45;;;;;;;;;;;;;;;12.58;100.00;99629.44;5029234;28;20290;-86
2022/09/15 07:12:18;;;;;;;;;;;;;;;12.59;100.00;99623.72;5024091;28;20553;-83
2022/09/15 07:14:51;;;;;;;;;;;;;;;12.67;100.00;99622.09;5043579;28;19929;-83
2022/09/15 07:17:25;;;;;;;;;;;;;;;12.74;100.00;99624.34;5026300;28;19929;-85
2022/09/15 07:19:59;;;;;;;;;;;;;;;12.72;100.00;99629.34;5042847;28;19920;-85
2022/09/15 07:22:28;;;;;;;;;;;;;;;12.86;100.00;99627.25;5057494;28;20286;-83
2022/09/15 07:24:56;;;;;;;;;;;;;;;12.87;100.00;99628.84;5037339;28;19928;-81
2022/09/15 07:27:30;;;;;;;;;;;;;;;12.88;100.00;99630.44;5001736;28;19920;-86
2022/09/15 07:30:07;;;;;;;;;;;;;;;13.05;100.00;99632.38;5015553;28;19926;-87
2022/09/15 07:32:40;;;;;;;;;;;;;;;13.17;100.00;99630.94;5006342;28;19987;-85
2022/09/15 07:35:12;;;;;;;;;;;;;;;13.22;100.00;99631.56;5041727;28;19921;-83
2022/09/15 07:37:43;;;;;;;;;;;;;;;13.26;100.00;99635.25;5010958;28;19955;-84
2022/09/15 07:40:16;;;;;;;;;;;;;;;13.23;100.00;99635.91;5029386;28;19963;-84
2022/09/15 07:42:49;;;;;;;;;;;;;;;13.15;100.00;99646.84;5037763;28;19936;-83
2022/09/15 07:45:22;;;;;;;;;;;;;;;13.21;100.00;99649.06;5034164;28;19929;-84
2022/09/15 07:47:54;;;;;;;;;;;;;;;13.15;100.00;99644.91;5022701;28;19928;-86
2022/09/15 07:50:27;;;;;;;;;;;;;;;13.14;100.00;99653.44;5012381;28;20416;-89
2022/09/15 07:52:57;;;;;;;;;;;;;;;13.09;100.00;99660.66;5000885;28;19935;-85
2022/09/15 07:55:29;;;;;;;;;;;;;;;13.11;100.00;99654.88;5023166;28;19929;-87
2022/09/15 07:57:58;;;;;;;;;;;;;;;13.24;100.00;99655.81;5021942;28;19936;-82
2022/09/15 08:00:31;;;;;;;;;;;;;;;13.46;100.00;99656.81;5005578;28;19936;-86
2022/09/15 08:03:03;;;;;;;;;;;;;;;13.52;100.00;99659.03;5022151;28;19936;-86
2022/09/15 08:05:36;;;;;;;;;;;;;;;13.62;100.00;99657.91;5034900;28;20308;-86
2022/09/15 08:08:10;;;;;;;;;;;;;;;13.48;100.00;99662.72;5003998;28;19959;-87
2022/09/15 08:10:43;;;;;;;;;;;;;;;13.53;100.00;99655.16;5013989;28;20615;-87
2022/09/15 08:13:11;;;;;;;;;;;;;;;13.39;100.00;99660.03;5012897;28;19929;-85
2022/09/15 08:15:40;;;;;;;;;;;;;;;13.40;100.00;99662.44;5013231;28;20643;-85
2022/09/15 08:18:08;;;;;;;;;;;;;;;13.49;100.00;99670.63;5027598;28;19936;-87
2022/09/15 08:20:38;;;;;;;;;;;;;;;13.52;100.00;99669.97;5022609;28;19929;-88
2022/09/15 08:23:13;;;;;;;;;;;;;;;13.60;100.00;99676.53;5034397;28;19952;-88
2022/09/15 08:25:46;;;;;;;;;;;;;;;13.61;100.00;99672.69;5035972;28;19921;-87
2022/09/15 08:28:19;;;;;;;;;;;;;;;13.57;100.00;99677.19;5030774;28;19940;-87
2022/09/15 08:30:47;;;;;;;;;;;;;;;13.64;100.00;99671.25;5034180;28;19936;-87
2022/09/15 08:33:14;;;;;;;;;;;;;;;13.58;100.00;99676.88;5011109;28;19929;-86
2022/09/15 08:35:42;;;;;;;;;;;;;;;13.58;100.00;99681.53;5000947;28;20373;-88
2022/09/15 08:38:10;;;;;;;;;;;;;;;13.74;100.00;99679.06;5008513;28;19924;-86
2022/09/15 08:40:45;;;;;;;;;;;;;;;13.76;100.00;99688.56;5001631;28;19929;-90
2022/09/15 08:43:16;;;;;;;;;;;;;;;13.74;100.00;99692.75;5038181;28;19921;-88
2022/09/15 08:45:48;;;;;;;;;;;;;;;13.76;100.00;99685.84;5020063;28;20853;-87
2022/09/15 08:48:25;;;;;;;;;;;;;;;13.74;100.00;99696.31;5011257;28;19936;-88
2022/09/15 08:51:00;;;;;;;;;;;;;;;13.67;100.00;99700.66;5012288;28;19932;-86
2022/09/15 08:53:30;;;;;;;;;;;;;;;13.61;100.00;99700.81;5029267;28;19936;-87
2022/09/15 08:56:10;;;;;;;;;;;;;;;13.53;100.00;99692.63;4995250;28;19959;-88
2022/09/15 08:58:38;;;;;;;;;;;;;;;13.58;100.00;99700.69;5013420;28;19929;-86
2022/09/15 09:01:14;;;;;;;;;;;;;;;13.67;100.00;99700.66;5031588;28;19929;-88
2022/09/15 09:03:57;;;;;;;;;;;;;;;13.60;100.00;99703.88;5037397;28;20156;-87
2022/09/15 09:06:31;;;;;;;;;;;;;;;13.58;100.00;99700.69;4997929;28;19936;-88
2022/09/15 09:09:05;;;;;;;;;;;;;;;13.83;100.00;99709.16;5013626;28;19933;-88
2022/09/15 09:11:41;;;;;;;;;;;;;;;13.95;100.00;99701.09;5002525;28;19940;-87
2022/09/15 09:14:19;;;;;;;;;;;;;;;13.87;100.00;99704.66;4997518;28;19925;-87
2022/09/15 09:16:55;;;;;;;;;;;;;;;13.92;100.00;99704.44;5000392;28;20579;-88
2022/09/15 09:19:30;;;;;;;;;;;;;;;13.98;100.00;99697.69;4997790;28;20510;-87
2022/09/15 09:22:01;;;;;;;;;;;;;;;14.01;100.00;99705.22;5001938;28;19929;-86
2022/09/15 09:24:34;;;;;;;;;;;;;;;13.94;100.00;99705.72;5020385;28;20365;-87
2022/09/15 09:27:03;;;;;;;;;;;;;;;13.97;100.00;99701.53;5004330;28;21330;-87
2022/09/15 09:29:39;;;;;;;;;;;;;;;14.27;100.00;99698.88;5001151;28;19929;-86
2022/09/15 09:32:17;;;;;;;;;;;;;;;14.56;100.00;99689.84;4996615;28;20182;-88
2022/09/15 09:34:54;;;;;;;;;;;;;;;14.69;100.00;99695.47;4992580;28;20395;-84
2022/09/15 09:37:23;;;;;;;;;;;;;;;14.77;100.00;99705.56;5015528;28;19929;-88
2022/09/15 09:39:56;;;;;;;;;;;;;;;14.90;100.00;99699.03;5000935;28;19929;-85
2022/09/15 09:42:31;;;;;;;;;;;;;;;14.86;100.00;99691.78;5032756;28;20404;-85
2022/09/15 09:45:06;;;;;;;;;;;;;;;14.81;100.00;99686.53;5000778;28;19960;-84
2022/09/15 09:47:40;;;;;;;;;;;;;;;14.96;100.00;99688.69;4995099;28;20437;-85
2022/09/15 09:50:22;;;;;;;;;;;;;;;15.05;100.00;99683.94;5001809;28;19940;-86
2022/09/15 09:52:55;;;;;;;;;;;;;;;15.18;100.00;99678.50;5031957;28;20230;-88
2022/09/15 09:55:25;;;;;;;;;;;;;;;15.13;100.00;99685.81;5032650;28;19929;-89
2022/09/15 09:58:10;;;;;;;;;;;;;;;15.19;100.00;99669.97;5020438;28;19936;-85
2022/09/15 10:00:43;;;;;;;;;;;;;;;15.31;100.00;99680.16;5001081;28;19929;-85
2022/09/15 10:03:16;;;;;;;;;;;;;;;15.42;100.00;99680.56;5002263;28;20491;-87
2022/09/15 10:06:04;;;;;;;;;;;;;;;15.33;100.00;99677.06;5031873;28;19935;-87
2022/09/15 10:08:38;;;;;;;;;;;;;;;15.24;100.00;99677.97;5004656;28;19929;-83
2022/09/15 10:11:07;;;;;;;;;;;;;;;15.18;100.00;99683.97;5032815;28;19947;-84
2022/09/15 10:13:51;;;;;;;;;;;;;;;15.19;100.00;99682.84;5018089;28;19940;-88
2022/09/15 10:16:19;;;;;;;;;;;;;;;15.17;100.00;99685.94;5003577;28;19929;-90
2022/09/15 10:18:49;;;;;;;;;;;;;;;15.15;100.00;99682.72;5005398;28;19925;-90
2022/09/15 10:21:23;;;;;;;;;;;;;;;15.09;100.00;99684.88;5002211;28;20385;-88
2022/09/15 10:23:56;;;;;;;;;;;;;;;14.87;100.00;99696.16;5007922;28;20012;-89
2022/09/15 10:26:31;;;;;;;;;;;;;;;14.55;100.00;99704.66;5032956;28;19936;-88
2022/09/15 10:29:20;;;;;;;;;;;;;;;14.47;100.00;99702.78;5001342;28;20388;-89
2022/09/15 10:32:00;;;;;;;;;;;;;;;14.65;100.00;99710.94;4998249;28;19929;-87
2022/09/15 10:34:30;;;;;;;;;;;;;;;14.35;100.00;99710.88;5001368;28;20219;-88
2022/09/15 10:37:07;;;;;;;;;;;;;;;14.15;100.00;99721.44;5042767;28;19928;-88
2022/09/15 10:39:43;;;;;;;;;;;;;;;14.05;100.00;99714.38;5039053;28;20409;-88
2022/09/15 10:42:19;;;;;;;;;;;;;;;13.97;100.00;99708.97;5003988;28;20267;-88
2022/09/15 10:44:51;;;;;;;;;;;;;;;14.03;100.00;99713.94;5034002;28;19929;-89
2022/09/15 10:47:29;;;;;;;;;;;;;;;14.06;100.00;99699.59;5040405;28;19935;-87
2022/09/15 10:50:05;;;;;;;;;;;;;;;14.26;100.00;99697.25;4998749;28;19929;-88
2022/09/15 10:52:40;;;;;;;;;;;;;;;14.32;100.00;99698.69;5001819;28;20290;-89
2022/09/15 10:55:20;;;;;;;;;;;;;;;14.48;100.00;99695.38;5007130;28;20850;-88
2022/09/15 10:57:54;;;;;;;;;;;;;;;14.59;100.00;99682.91;4999717;28;19976;-88
2022/09/15 11:00:31;;;;;;;;;;;;;;;15.00;100.00;99683.31;5000015;28;19929;-86
2022/09/15 11:03:17;;;;;;;;;;;;;;;15.12;100.00;99680.63;5021339;28;20808;-88
2022/09/15 11:05:50;;;;;;;;;;;;;;;15.22;100.00;99680.25;5029161;28;21659;-89
2022/09/15 11:08:44;;;;;;;;;;;;;;;15.38;100.00;99685.91;5033068;28;19944;-87
2022/09/15 11:11:17;;;;;;;;;;;;;;;15.27;100.00;99684.72;5011516;28;19936;-90
2022/09/15 11:13:58;;;;;;;;;;;;;;;15.18;100.00;99700.41;5023167;28;19936;-88
2022/09/15 11:16:32;;;;;;;;;;;;;;;14.88;100.00;99705.97;5047939;28;19987;-87
2022/09/15 11:19:14;;;;;;;;;;;;;;;14.62;100.00;99709.63;5015986;28;19929;-87
2022/09/15 11:21:45;;;;;;;;;;;;;;;14.43;100.00;99710.88;5042326;28;20394;-87
2022/09/15 11:24:21;;;;;;;;;;;;;;;14.39;100.00;99720.06;5005831;28;19956;-88
2022/09/15 11:26:52;;;;;;;;;;;;;;;14.32;100.00;99717.03;5001011;28;20374;-86
2022/09/15 11:29:27;;;;;;;;;;;;;;;14.25;100.00;99710.16;4999596;28;20328;-88
2022/09/15 11:32:03;;;;;;;;;;;;;;;14.23;100.00;99697.91;5006839;28;19925;-89
2022/09/15 11:34:41;;;;;;;;;;;;;;;14.27;100.00;99713.34;5001612;28;20253;-87
2022/09/15 11:37:12;;;;;;;;;;;;;;;14.40;100.00;99700.59;5034099;28;19968;-89
2022/09/15 11:39:48;;;;;;;;;;;;;;;14.41;100.00;99699.44;5012710;28;20144;-87
2022/09/15 11:42:18;;;;;;;;;;;;;;;14.65;100.00;99705.47;5021486;28;19932;-87
2022/09/15 11:44:47;;;;;;;;;;;;;;;14.76;100.00;99718.47;5035385;28;20845;-88
2022/09/15 11:47:24;;;;;;;;;;;;;;;14.82;100.00;99707.28;5041189;28;20269;-88
2022/09/15 11:50:09;;;;;;;;;;;;;;;14.72;100.00;99694.78;5004818;28;19936;-88
2022/09/15 11:52:51;;;;;;;;;;;;;;;14.81;100.00;99703.75;5002970;28;19929;-89
2022/09/15 11:55:27;;;;;;;;;;;;;;;15.16;100.00;99702.69;5003875;28;20583;-87
2022/09/15 11:57:59;;;;;;;;;;;;;;;15.44;100.00;99703.75;5008518;28;19936;-87
2022/09/15 12:00:34;;;;;;;;;;;;;;;15.45;100.00;99702.63;5030405;28;19936;-88
2022/09/15 12:03:08;;;;;;;;;;;;;;;15.31;100.00;99707.56;5002757;28;19929;-87
2022/09/15 12:05:40;;;;;;;;;;;;;;;15.14;100.00;99711.25;5033011;28;20405;-87
2022/09/15 12:08:14;;;;;;;;;;;;;;;15.04;100.00;99712.47;5002159;28;19929;-88
2022/09/15 12:10:51;;;;;;;;;;;;;;;15.03;100.00;99726.50;5017635;28;19916;-87
2022/09/15 12:13:24;;;;;;;;;;;;;;;14.88;100.00;99725.94;5000964;28;20784;-87
2022/09/15 12:15:53;;;;;;;;;;;;;;;14.81;100.00;99722.94;4998216;28;19936;-88
2022/09/15 12:18:25;;;;;;;;;;;;;;;14.85;100.00;99723.06;4996823;28;19935;-89
2022/09/15 12:20:58;;;;;;;;;;;;;;;14.91;100.00;99729.94;5000644;28;20271;-88
2022/09/15 12:23:31;;;;;;;;;;;;;;;15.00;100.00;99719.75;5040578;28;20409;-89
2022/09/15 12:26:07;;;;;;;;;;;;;;;15.18;100.00;99725.09;5002365;28;19936;-88
2022/09/15 12:28:40;;;;;;;;;;;;;;;15.23;100.00;99713.94;4995770;28;19929;-88
2022/09/15 12:31:12;;;;;;;;;;;;;;;15.15;100.00;99718.34;4999162;28;20381;-86
2022/09/15 12:33:43;;;;;;;;;;;;;;;15.22;100.00;99718.63;5004921;28;19929;-89
2022/09/15 12:36:35;;;;;;;;;;;;;;;15.17;100.00;99718.03;4997384;28;20022;-88
2022/09/15 12:39:16;;;;;;;;;;;;;;;15.27;100.00;99712.94;5002066;28;19936;-88
2022/09/15 12:41:46;;;;;;;;;;;;;;;15.31;100.00;99710.31;5011471;28;19929;-88
2022/09/15 12:44:17;;;;;;;;;;;;;;;15.40;100.00;99708.31;5008194;28;19936;-86
2022/09/15 12:46:51;;;;;;;;;;;;;;;15.49;100.00;99710.97;5000013;28;20394;-90
2022/09/15 12:49:28;;;;;;;;;;;;;;;15.59;100.00;99709.72;5037480;28;19936;-86
2022/09/15 12:51:57;;;;;;;;;;;;;;;15.70;100.00;99707.38;5005391;28;19928;-90
2022/09/15 12:54:29;;;;;;;;;;;;;;;15.87;100.00;99709.16;5018417;28;19936;-87
2022/09/15 12:57:03;;;;;;;;;;;;;;;15.88;100.00;99714.34;5000253;28;19936;-89
2022/09/15 12:59:35;;;;;;;;;;;;;;;15.79;100.00;99706.19;4999183;28;19929;-85
2022/09/15 13:02:03;;;;;;;;;;;;;;;15.91;100.00;99707.34;5015106;28;20463;-89
2022/09/15 13:04:51;;;;;;;;;;;;;;;16.19;100.00;99701.25;4999199;28;20330;-87
2022/09/15 13:07:49;;;;;;;;;;;;;;;16.25;100.00;99706.13;5005227;28;20385;-88
2022/09/15 13:10:29;;;;;;;;;;;;;;;16.23;100.00;99696.66;4929131;28;19930;-88